Gladwin, MI (48624)

9:27 PM EST on January 27, 2015 (GMT -0500)
RAWS ALGER MI US | Change Station
CLOSE
Current Station
Personal Weather Station
Location: Alger, MI
Elevation: 783 ft
Nearby Weather Stations

Elev 783 ft 44.13 °N, 84.12 °W | Updated 26 minutes ago

Clear
Clear
8 °F
Feels Like 8 °F
N
0
Wind Variable Wind from North
Gusts 1.0 mph

Today
High -- | Low -- °F
--% Chance of Precip.
Yesterday
High -- | Low -- °F
Precip. -- in
8:00 AM 5:40 PM
First Quarter, 60% visible
Pressure 30.28 in
Visibility 10.0 miles
Clouds Clear
Windchill 8 °F
Dew Point 3 °F
Humidity 79%
Rainfall 0.00 in
Snow Depth Not available.
UV 0 out of 12
Pollen .10 out of 12
Air Quality Not available.
Flu Activity Not available.
METAR KHTL 280153Z AUTO 30003KT 10SM CLR M12/M18 A3020 RMK AO2 SLP254 T11221178

More Conditions Fewer Conditions

Pressure 30.28 in
Visibility 10.0 miles
Clouds Clear
Windchill 8 °F
Dew Point 3 °F
Humidity 79%
Rainfall 0.00 in
Snow Depth Not available.
UV 0 out of 12
Pollen .10 out of 12
Air Quality Not available.
Flu Activity Not available.
METAR KHTL 280153Z AUTO 30003KT 10SM CLR M12/M18 A3020 RMK AO2 SLP254 T11221178

More Conditions Fewer Conditions

Nowcast | as of 9:00 PM EST on January 27, 2015

At 10 PM...clear. Temperature 10 above. Light winds. At 12 am...mostly clear. Temperature 4 above. Light winds. At 2 am...mostly clear. Temperature 2 above. Light winds. At 4 am...mostly clear. Temperature 2 above. Light winds.

×

10-Day Weather Forecast

Almanac

Astronomy

Jan. 27, 2015 Rise Set
Actual Time
Civil Twilight
Nautical Twilight
Astronomical Twilight
Moon
Length of Visible Light
Length of Day
Tomorrow will be .
, % of the Moon is Illuminated

Today's Extremes

State Highs State Lows

Community

WunderPhotos

Upload Photos

1,791,055 photos uploaded!

WunderBlogs® & News

Nearby

Air Quality

  Air Quality AQ Index Pollutant
Not available.

Snow Depth

Station Depth Elevation

Earthquake Activity

City Distance Mag. Time & Date
Minimum magnitude displayed is 2.5.

Coastal Water Temperatures

Place Temperature

Nearby Weather Stations